createdAt,value
2018-07-27T00:01:45.018Z,4.13
2018-07-27T00:04:13.369Z,4.00
2018-07-27T00:06:41.684Z,4.20
2018-07-27T00:09:11.984Z,4.50
2018-07-27T00:11:40.761Z,3.43
2018-07-27T00:14:09.058Z,4.63
2018-07-27T00:16:37.518Z,4.30
2018-07-27T00:19:06.071Z,4.37
2018-07-27T00:21:34.763Z,4.57
2018-07-27T00:24:03.089Z,4.07
2018-07-27T00:26:31.439Z,3.97
2018-07-27T00:28:59.772Z,4.20
2018-07-27T00:31:28.148Z,3.83
2018-07-27T00:33:56.467Z,4.90
2018-07-27T00:36:24.809Z,4.70
2018-07-27T00:38:53.208Z,4.10
2018-07-27T00:41:21.575Z,4.07
2018-07-27T00:43:49.977Z,4.43
2018-07-27T00:46:18.376Z,4.10
2018-07-27T00:48:46.715Z,4.33
2018-07-27T00:51:15.028Z,4.63
2018-07-27T00:53:43.349Z,4.10
2018-07-27T00:56:11.653Z,3.73
2018-07-27T00:58:39.956Z,4.03
2018-07-27T01:01:08.399Z,4.10
2018-07-27T01:03:36.709Z,4.10
2018-07-27T01:06:05.051Z,4.90
2018-07-27T01:08:33.370Z,4.77
2018-07-27T01:11:01.682Z,4.87
2018-07-27T01:13:29.973Z,4.60
2018-07-27T01:15:58.304Z,4.70
2018-07-27T01:18:26.643Z,5.13
2018-07-27T01:20:54.945Z,4.77
2018-07-27T01:23:23.232Z,4.70
2018-07-27T01:25:51.525Z,4.70
2018-07-27T01:28:19.847Z,3.83
2018-07-27T01:30:48.234Z,4.13
2018-07-27T01:33:16.533Z,4.30
2018-07-27T01:35:44.901Z,4.30
2018-07-27T01:38:13.185Z,4.73
2018-07-27T01:40:41.539Z,4.30
2018-07-27T01:43:09.915Z,4.27
2018-07-27T01:45:38.292Z,4.47
2018-07-27T01:48:06.672Z,4.40
2018-07-27T01:50:34.987Z,3.97
2018-07-27T01:53:03.380Z,3.90
2018-07-27T01:55:31.685Z,4.10
2018-07-27T01:58:00.013Z,4.60
2018-07-27T02:00:28.392Z,4.67
2018-07-27T02:02:56.733Z,4.33
2018-07-27T02:05:25.043Z,4.30
2018-07-27T02:07:53.368Z,4.33
2018-07-27T02:10:21.709Z,4.40
2018-07-27T02:12:49.996Z,4.40
2018-07-27T02:15:18.325Z,4.60
2018-07-27T02:17:46.649Z,4.40
2018-07-27T02:20:15.293Z,4.60
2018-07-27T02:22:43.688Z,4.57
2018-07-27T02:25:12.014Z,4.53
2018-07-27T02:27:40.058Z,5.30
2018-07-27T02:30:08.380Z,5.60
2018-07-27T02:32:36.741Z,4.60
2018-07-27T02:35:05.414Z,4.70
2018-07-27T02:37:34.071Z,4.63
2018-07-27T02:40:02.452Z,4.03
2018-07-27T02:42:30.739Z,4.30
2018-07-27T02:44:59.195Z,4.67
2018-07-27T02:47:27.528Z,4.50
2018-07-27T02:52:28.137Z,4.20
2018-07-27T02:54:56.461Z,4.57
2018-07-27T02:57:24.756Z,4.20
2018-07-27T02:59:53.085Z,4.20
2018-07-27T03:02:21.442Z,5.03
2018-07-27T03:04:49.758Z,4.50
2018-07-27T03:07:18.074Z,4.97
2018-07-27T03:09:46.431Z,5.20
2018-07-27T03:12:14.760Z,4.33
2018-07-27T03:14:43.115Z,4.70
2018-07-27T03:17:11.443Z,4.53
2018-07-27T03:19:39.781Z,4.67
2018-07-27T03:22:08.262Z,5.40
2018-07-27T03:24:36.639Z,5.10
2018-07-27T03:27:04.968Z,5.77
2018-07-27T03:29:33.304Z,5.30
2018-07-27T03:32:01.630Z,5.80
2018-07-27T03:34:30.016Z,4.73
2018-07-27T03:36:58.302Z,5.67
2018-07-27T03:39:26.638Z,4.87
2018-07-27T03:41:55.177Z,5.60
2018-07-27T03:44:23.561Z,5.13
2018-07-27T03:46:51.902Z,5.77
2018-07-27T03:49:20.237Z,5.40
2018-07-27T03:51:48.531Z,5.10
2018-07-27T03:54:16.827Z,5.30
2018-07-27T03:56:45.144Z,4.30
2018-07-27T03:59:13.436Z,5.27
2018-07-27T04:01:41.722Z,4.93
2018-07-27T04:04:10.030Z,5.00
2018-07-27T04:06:38.345Z,5.50
2018-07-27T04:09:07.532Z,4.93
2018-07-27T04:11:35.841Z,5.37
2018-07-27T04:14:04.144Z,5.40
2018-07-27T04:16:32.457Z,5.13
2018-07-27T04:19:00.785Z,4.87
2018-07-27T04:21:29.117Z,4.87
2018-07-27T04:23:57.414Z,4.60
2018-07-27T04:26:25.836Z,5.93
2018-07-27T04:28:54.072Z,4.47
2018-07-27T04:31:22.448Z,4.70
2018-07-27T04:33:50.892Z,4.70
2018-07-27T04:36:19.229Z,5.73
2018-07-27T04:38:47.619Z,4.77
2018-07-27T04:41:15.972Z,4.40
2018-07-27T04:43:44.292Z,4.67
2018-07-27T04:46:12.611Z,5.27
2018-07-27T04:48:40.946Z,5.67
2018-07-27T04:51:09.296Z,5.47
2018-07-27T04:53:37.619Z,6.00
2018-07-27T04:56:06.168Z,5.33
2018-07-27T04:58:34.468Z,5.80
2018-07-27T05:01:02.838Z,5.37
2018-07-27T05:03:31.167Z,4.93
2018-07-27T05:05:59.448Z,4.70
2018-07-27T05:08:27.763Z,4.63
2018-07-27T05:10:56.153Z,4.60
2018-07-27T05:13:24.463Z,5.60
2018-07-27T05:15:52.746Z,4.80
2018-07-27T05:18:21.161Z,4.73
2018-07-27T05:20:49.355Z,4.90
2018-07-27T05:23:17.649Z,5.07
2018-07-27T05:25:45.939Z,4.47
2018-07-27T05:28:14.271Z,4.83
2018-07-27T05:30:42.563Z,5.40
2018-07-27T05:33:10.895Z,5.50
2018-07-27T05:35:39.234Z,5.10
2018-07-27T05:38:07.268Z,5.63
2018-07-27T05:40:35.619Z,5.00
2018-07-27T05:43:03.931Z,5.40
2018-07-27T05:45:32.308Z,5.43
2018-07-27T05:48:00.579Z,5.97
2018-07-27T05:50:28.902Z,4.87
2018-07-27T05:52:57.229Z,5.90
2018-07-27T05:55:25.574Z,5.07
2018-07-27T05:57:53.906Z,5.00
2018-07-27T06:00:22.222Z,5.17
2018-07-27T06:02:50.599Z,4.70
2018-07-27T06:05:19.160Z,5.00
2018-07-27T06:07:47.453Z,4.97
2018-07-27T06:10:15.834Z,4.73
2018-07-27T06:12:44.127Z,5.47
2018-07-27T06:15:12.494Z,4.90
2018-07-27T06:17:40.832Z,5.40
2018-07-27T06:20:09.472Z,5.27
2018-07-27T06:22:38.211Z,4.90
2018-07-27T06:25:06.597Z,5.10
2018-07-27T06:27:34.909Z,5.47
2018-07-27T06:30:03.376Z,5.43
2018-07-27T06:32:31.653Z,5.80
2018-07-27T06:34:59.985Z,4.87
2018-07-27T06:37:28.302Z,4.97
2018-07-27T06:39:56.613Z,5.83
2018-07-27T06:42:24.989Z,5.73
2018-07-27T06:44:53.367Z,5.17
2018-07-27T06:47:21.728Z,5.30
2018-07-27T06:49:50.111Z,5.20
2018-07-27T06:52:18.466Z,5.17
2018-07-27T06:54:46.826Z,5.10
2018-07-27T06:57:15.180Z,5.10
2018-07-27T06:59:43.522Z,5.20
2018-07-27T07:02:11.888Z,5.63
2018-07-27T07:04:40.240Z,5.50
2018-07-27T07:07:08.594Z,5.60
2018-07-27T07:09:36.958Z,6.87
2018-07-27T07:12:05.405Z,6.00
2018-07-27T07:14:33.793Z,6.23
2018-07-27T07:17:02.006Z,6.00
2018-07-27T07:19:30.366Z,6.17
2018-07-27T07:21:58.698Z,6.27
2018-07-27T07:24:26.982Z,6.27
2018-07-27T07:26:55.331Z,5.80
2018-07-27T07:29:23.645Z,6.37
2018-07-27T07:31:52.025Z,5.80
2018-07-27T07:34:20.381Z,6.20
2018-07-27T07:36:48.695Z,6.60
2018-07-27T07:39:17.144Z,6.80
2018-07-27T07:41:45.496Z,6.53
2018-07-27T07:44:13.838Z,6.30
2018-07-27T07:46:42.143Z,7.27
2018-07-27T07:49:10.459Z,6.20
2018-07-27T07:51:38.834Z,6.03
2018-07-27T07:54:07.196Z,6.70
2018-07-27T07:56:35.544Z,5.90
2018-07-27T07:59:03.976Z,6.50
2018-07-27T08:01:32.839Z,6.40
2018-07-27T08:04:01.200Z,6.80
2018-07-27T08:06:29.550Z,7.13
2018-07-27T08:08:57.949Z,6.70
2018-07-27T08:11:26.441Z,6.77
2018-07-27T08:13:54.773Z,6.80
2018-07-27T08:16:23.140Z,6.47
2018-07-27T08:18:51.462Z,6.90
2018-07-27T08:21:24.066Z,6.90
2018-07-27T08:23:52.382Z,6.73
2018-07-27T08:26:41.597Z,7.00
2018-07-27T08:29:10.973Z,7.37
2018-07-27T08:31:40.376Z,6.70
2018-07-27T08:34:08.732Z,6.37
2018-07-27T08:36:37.080Z,6.43
2018-07-27T08:39:08.876Z,7.07
2018-07-27T08:41:37.982Z,6.77
2018-07-27T08:44:06.592Z,7.30
2018-07-27T08:46:35.001Z,7.00
2018-07-27T08:49:03.362Z,7.50
2018-07-27T08:51:31.847Z,6.90
2018-07-27T08:54:00.233Z,7.30
2018-07-27T08:56:28.591Z,6.77
2018-07-27T08:58:56.967Z,6.97
2018-07-27T09:01:25.452Z,7.30
2018-07-27T09:03:54.098Z,5.90
2018-07-27T09:06:22.382Z,6.17
2018-07-27T09:08:51.178Z,6.67
2018-07-27T09:11:19.832Z,6.67
2018-07-27T09:13:48.588Z,7.00
2018-07-27T09:16:16.948Z,6.50
2018-07-27T09:18:45.314Z,7.33
2018-07-27T09:21:13.739Z,7.17
2018-07-27T09:23:42.132Z,6.13
2018-07-27T09:26:10.481Z,6.90
2018-07-27T09:28:39.087Z,6.77
2018-07-27T09:31:07.458Z,6.27
2018-07-27T09:33:35.891Z,7.10
2018-07-27T09:36:04.291Z,6.37
2018-07-27T09:38:32.664Z,6.87
2018-07-27T09:41:01.015Z,6.73
2018-07-27T09:43:29.389Z,7.03
2018-07-27T09:45:57.752Z,7.10
2018-07-27T09:48:26.141Z,6.40
2018-07-27T09:50:54.550Z,7.17
2018-07-27T09:53:22.913Z,6.27
2018-07-27T09:55:51.247Z,6.23
2018-07-27T09:58:19.318Z,6.40
2018-07-27T10:00:53.063Z,6.63
2018-07-27T10:03:21.431Z,5.80
2018-07-27T10:05:49.765Z,6.70
2018-07-27T10:08:18.102Z,5.90
2018-07-27T10:10:46.446Z,6.73
2018-07-27T10:13:14.772Z,6.70
2018-07-27T10:15:43.049Z,6.33
2018-07-27T10:18:11.404Z,6.50
2018-07-27T10:20:39.709Z,6.50
2018-07-27T10:23:08.101Z,6.63
2018-07-27T10:25:36.469Z,6.37
2018-07-27T10:28:04.793Z,7.07
2018-07-27T10:30:33.229Z,6.00
2018-07-27T10:33:01.628Z,6.07
2018-07-27T10:35:30.125Z,6.80
2018-07-27T10:37:58.602Z,5.90
2018-07-27T10:40:26.990Z,6.27
2018-07-27T10:42:55.371Z,6.53
2018-07-27T10:45:23.756Z,5.87
2018-07-27T10:47:52.130Z,6.00
2018-07-27T10:50:20.586Z,6.00
2018-07-27T10:52:48.922Z,5.83
2018-07-27T10:55:17.294Z,5.80
2018-07-27T10:57:45.621Z,5.70
2018-07-27T11:00:15.827Z,5.93
2018-07-27T11:02:44.227Z,6.03
2018-07-27T11:05:13.343Z,5.90
2018-07-27T11:07:42.133Z,5.97
2018-07-27T11:10:11.175Z,5.93
2018-07-27T11:12:39.551Z,6.30
2018-07-27T11:15:08.991Z,5.40
2018-07-27T11:17:37.465Z,6.30
2018-07-27T11:20:06.008Z,5.37
2018-07-27T11:22:34.449Z,5.80
2018-07-27T11:25:02.822Z,5.30
2018-07-27T11:27:31.267Z,5.50
2018-07-27T11:29:59.688Z,5.53
2018-07-27T11:32:28.039Z,5.73
2018-07-27T11:34:56.381Z,4.50
2018-07-27T11:37:24.855Z,5.43
2018-07-27T11:39:53.223Z,4.93
2018-07-27T11:42:21.577Z,5.50
2018-07-27T11:44:49.932Z,5.67
2018-07-27T11:47:18.356Z,5.20
2018-07-27T11:49:46.801Z,5.40
2018-07-27T11:52:15.189Z,5.30
2018-07-27T11:54:43.608Z,5.57
2018-07-27T11:57:12.100Z,5.00
2018-07-27T11:59:40.451Z,6.20
2018-07-27T12:02:08.818Z,5.97
2018-07-27T12:04:37.178Z,6.07
2018-07-27T12:07:05.557Z,6.23
2018-07-27T12:09:33.910Z,5.67
2018-07-27T12:12:02.266Z,5.83
2018-07-27T12:14:30.703Z,6.23
2018-07-27T12:16:58.965Z,6.10
2018-07-27T12:19:27.332Z,5.53
2018-07-27T12:21:55.712Z,5.30
2018-07-27T12:24:24.002Z,5.57
2018-07-27T12:26:52.427Z,5.77
2018-07-27T12:29:20.790Z,5.80
2018-07-27T12:31:49.148Z,6.00
2018-07-27T12:34:17.534Z,6.00
2018-07-27T12:36:45.932Z,6.07
2018-07-27T12:39:14.352Z,5.90
2018-07-27T12:41:42.829Z,6.00
2018-07-27T12:44:11.617Z,5.50
2018-07-27T12:46:40.436Z,5.80
2018-07-27T12:49:09.431Z,5.70
2018-07-27T12:51:37.816Z,6.13
2018-07-27T12:54:06.260Z,6.03
2018-07-27T12:56:34.681Z,5.80
2018-07-27T12:59:03.108Z,5.63
2018-07-27T13:01:31.431Z,5.47
2018-07-27T13:03:59.805Z,5.80
2018-07-27T13:06:28.242Z,5.70
2018-07-27T13:08:56.570Z,6.13
2018-07-27T13:11:24.992Z,5.90
2018-07-27T13:13:53.371Z,5.97
2018-07-27T13:16:21.752Z,5.33
2018-07-27T13:18:50.455Z,5.87
2018-07-27T13:21:18.861Z,5.50
2018-07-27T13:23:55.577Z,6.50
2018-07-27T13:26:24.031Z,5.60
2018-07-27T13:28:52.365Z,6.07
2018-07-27T13:31:57.008Z,5.37
2018-07-27T13:34:40.745Z,5.10
2018-07-27T13:37:09.219Z,5.23
2018-07-27T13:39:39.437Z,5.80
2018-07-27T13:42:08.716Z,4.87
2018-07-27T13:44:38.847Z,5.10
2018-07-27T13:47:07.869Z,5.50
2018-07-27T13:49:36.368Z,5.25
2018-07-27T13:52:04.724Z,5.65
2018-07-27T13:54:33.998Z,5.58
2018-07-27T13:57:03.801Z,5.72
2018-07-27T13:59:32.635Z,5.80
2018-07-27T14:02:00.989Z,5.92
2018-07-27T14:04:29.338Z,5.62
2018-07-27T14:07:00.335Z,5.78
2018-07-27T14:09:28.690Z,5.47
2018-07-27T14:11:57.117Z,5.87
2018-07-27T14:14:25.601Z,5.65
2018-07-27T14:16:53.861Z,5.75
2018-07-27T14:19:22.631Z,6.20
2018-07-27T14:21:50.930Z,6.37
2018-07-27T14:24:19.393Z,5.53
2018-07-27T14:26:47.777Z,5.53
2018-07-27T14:29:16.166Z,5.70
2018-07-27T14:31:44.542Z,6.22
2018-07-27T14:34:12.989Z,5.90
2018-07-27T14:36:41.366Z,6.00
2018-07-27T14:39:12.949Z,6.00
2018-07-27T14:41:41.644Z,5.33
2018-07-27T14:44:10.353Z,6.15
2018-07-27T14:46:39.009Z,6.08
2018-07-27T14:49:09.791Z,5.67
2018-07-27T14:51:38.509Z,5.97
2018-07-27T14:54:07.680Z,5.47
2018-07-27T14:56:36.197Z,5.42
2018-07-27T14:59:04.658Z,6.65
2018-07-27T15:01:33.009Z,5.95
2018-07-27T15:04:01.421Z,5.62
2018-07-27T15:06:29.904Z,6.20
2018-07-27T15:08:58.270Z,6.08
2018-07-27T15:11:26.589Z,5.53
2018-07-27T15:13:55.004Z,5.50
2018-07-27T15:16:23.414Z,5.92
2018-07-27T15:18:51.833Z,6.30
2018-07-27T15:21:20.191Z,5.50
2018-07-27T15:23:48.525Z,5.80
2018-07-27T15:26:16.907Z,6.03
2018-07-27T15:28:45.250Z,5.45
2018-07-27T15:31:13.647Z,6.03
2018-07-27T15:33:42.008Z,5.67
2018-07-27T15:36:10.349Z,5.90
2018-07-27T15:38:38.713Z,5.50
2018-07-27T15:41:07.173Z,5.72
2018-07-27T15:43:35.563Z,5.78
2018-07-27T15:46:03.990Z,5.42
2018-07-27T15:48:32.482Z,6.05
2018-07-27T15:51:00.735Z,5.83
2018-07-27T15:53:29.123Z,5.97
2018-07-27T15:55:57.516Z,5.70
2018-07-27T15:58:26.156Z,5.60
2018-07-27T16:00:54.516Z,5.33
2018-07-27T16:03:22.876Z,5.90
2018-07-27T16:05:51.205Z,5.67
2018-07-27T16:08:19.568Z,5.47
2018-07-27T16:10:47.974Z,5.47
2018-07-27T16:13:16.456Z,5.60
2018-07-27T16:15:44.807Z,5.50
2018-07-27T16:18:13.175Z,5.47
2018-07-27T16:20:41.570Z,5.78
2018-07-27T16:23:09.893Z,5.62
2018-07-27T16:25:38.329Z,4.85
2018-07-27T16:28:06.732Z,5.25
2018-07-27T16:30:35.058Z,5.53
2018-07-27T16:33:03.443Z,5.45
2018-07-27T16:35:31.795Z,5.42
2018-07-27T16:38:00.146Z,4.92
2018-07-27T16:40:28.212Z,5.70
2018-07-27T16:42:56.336Z,5.17
2018-07-27T16:45:24.728Z,5.03
2018-07-27T16:47:53.127Z,5.37
2018-07-27T16:50:21.520Z,5.85
2018-07-27T16:52:50.342Z,5.03
2018-07-27T16:55:18.642Z,4.78
2018-07-27T16:57:47.757Z,4.83
2018-07-27T17:00:16.108Z,5.00
2018-07-27T17:02:44.502Z,5.60
2018-07-27T17:05:14.760Z,5.30
2018-07-27T17:07:43.204Z,4.90
2018-07-27T17:10:11.603Z,5.08
2018-07-27T17:12:39.989Z,4.62
2018-07-27T17:15:08.374Z,5.15
2018-07-27T17:17:36.808Z,5.58
2018-07-27T17:20:06.064Z,4.90
2018-07-27T17:22:34.935Z,5.08
2018-07-27T17:25:03.358Z,5.70
2018-07-27T17:27:31.770Z,5.30
2018-07-27T17:30:00.128Z,4.57
2018-07-27T17:32:28.501Z,5.80
2018-07-27T17:34:56.937Z,5.60
2018-07-27T17:37:25.329Z,5.37
2018-07-27T17:39:53.594Z,5.10
2018-07-27T17:42:21.955Z,4.70
2018-07-27T17:44:50.309Z,4.73
2018-07-27T17:47:18.669Z,5.40
2018-07-27T17:49:47.008Z,4.90
2018-07-27T17:52:15.419Z,5.00
2018-07-27T17:54:43.779Z,5.03
2018-07-27T17:57:12.122Z,5.10
2018-07-27T17:59:40.507Z,4.90
2018-07-27T18:02:08.862Z,5.10
2018-07-27T18:04:37.210Z,5.43
2018-07-27T18:07:05.689Z,4.90
2018-07-27T18:09:34.046Z,5.67
2018-07-27T18:12:02.426Z,5.63
2018-07-27T18:14:30.809Z,5.90
2018-07-27T18:16:59.205Z,5.93
2018-07-27T18:19:27.590Z,6.07
2018-07-27T18:21:55.977Z,6.53
2018-07-27T18:24:24.374Z,5.33
2018-07-27T18:26:52.740Z,6.00
2018-07-27T18:29:21.129Z,6.03
2018-07-27T18:31:49.484Z,5.40
2018-07-27T18:34:17.825Z,5.83
2018-07-27T18:36:46.193Z,5.37
2018-07-27T18:39:14.658Z,6.50
2018-07-27T18:41:43.022Z,6.43
2018-07-27T18:44:11.383Z,5.63
2018-07-27T18:46:40.176Z,5.70
2018-07-27T18:49:09.605Z,5.60
2018-07-27T18:51:38.001Z,6.17
2018-07-27T18:54:06.495Z,6.00
2018-07-27T18:56:34.880Z,5.70
2018-07-27T18:59:03.271Z,6.40
2018-07-27T19:01:31.725Z,5.97
2018-07-27T19:04:00.047Z,5.60
2018-07-27T19:06:28.422Z,6.20
2018-07-27T19:08:56.844Z,6.10
2018-07-27T19:11:26.098Z,6.70
2018-07-27T19:13:54.601Z,6.60
2018-07-27T19:16:22.964Z,6.20
2018-07-27T19:18:51.318Z,6.60
2018-07-27T19:21:20.050Z,6.27
2018-07-27T19:23:48.394Z,6.50
2018-07-27T19:26:16.729Z,6.10
2018-07-27T19:28:45.198Z,7.00
2018-07-27T19:31:13.281Z,6.80
2018-07-27T19:33:41.730Z,7.30
2018-07-27T19:36:10.092Z,6.63
2018-07-27T19:38:38.453Z,6.87
2018-07-27T19:41:06.798Z,6.60
2018-07-27T19:43:35.132Z,6.10
2018-07-27T19:46:03.525Z,7.00
2018-07-27T19:48:31.876Z,6.33
2018-07-27T19:51:00.278Z,6.40
2018-07-27T19:53:28.593Z,6.70
2018-07-27T19:55:56.929Z,7.10
2018-07-27T19:58:25.287Z,6.03
2018-07-27T20:00:53.355Z,6.00
2018-07-27T20:03:21.688Z,6.30
2018-07-27T20:05:50.377Z,6.67
2018-07-27T20:08:18.773Z,7.60
2018-07-27T20:10:47.233Z,6.53
2018-07-27T20:13:15.557Z,6.90
2018-07-27T20:15:43.897Z,6.80
2018-07-27T20:18:12.341Z,7.50
2018-07-27T20:20:40.845Z,6.30
2018-07-27T20:23:09.266Z,6.90
2018-07-27T20:25:37.617Z,7.13
2018-07-27T20:28:06.017Z,7.87
2018-07-27T20:30:34.364Z,6.77
2018-07-27T20:33:02.716Z,7.07
2018-07-27T20:35:31.092Z,6.87
2018-07-27T20:37:59.453Z,7.23
2018-07-27T20:40:27.824Z,8.20
2018-07-27T20:42:56.341Z,8.17
2018-07-27T20:45:24.676Z,7.90
2018-07-27T20:47:53.018Z,8.57
2018-07-27T20:50:21.362Z,9.23
2018-07-27T20:52:49.691Z,9.57
2018-07-27T20:55:18.061Z,9.60
2018-07-27T20:57:46.447Z,9.27
2018-07-27T21:00:14.945Z,9.50
2018-07-27T21:02:44.647Z,9.03
2018-07-27T21:05:13.930Z,9.43
2018-07-27T21:07:42.923Z,10.10
2018-07-27T21:10:12.258Z,9.97
2018-07-27T21:12:41.084Z,9.93
2018-07-27T21:15:09.452Z,9.80
2018-07-27T21:17:38.081Z,8.83
2018-07-27T21:20:06.969Z,9.20
2018-07-27T21:22:35.353Z,9.33
2018-07-27T21:25:03.733Z,8.40
2018-07-27T21:27:32.074Z,8.67
2018-07-27T21:30:00.425Z,10.07
2018-07-27T21:32:28.757Z,9.87
2018-07-27T21:34:57.156Z,9.70
2018-07-27T21:37:25.523Z,9.07
2018-07-27T21:39:53.966Z,8.70
2018-07-27T21:42:22.282Z,8.40
2018-07-27T21:44:50.653Z,9.20
2018-07-27T21:47:18.995Z,9.43
2018-07-27T21:49:47.502Z,10.47
2018-07-27T21:52:15.840Z,10.60
2018-07-27T21:54:44.242Z,11.47
2018-07-27T21:57:12.721Z,9.70
2018-07-27T21:59:41.120Z,10.60
2018-07-27T22:02:09.485Z,9.20
2018-07-27T22:04:37.812Z,9.80
2018-07-27T22:07:06.215Z,9.17
2018-07-27T22:09:34.592Z,10.10
2018-07-27T22:12:02.914Z,9.13
2018-07-27T22:14:31.278Z,9.20
2018-07-27T22:16:59.581Z,9.70
2018-07-27T22:19:27.946Z,10.57
2018-07-27T22:21:56.256Z,10.20
2018-07-27T22:24:24.630Z,9.20
2018-07-27T22:26:52.981Z,10.57
2018-07-27T22:29:21.306Z,10.07
2018-07-27T22:31:49.708Z,9.70
2018-07-27T22:34:18.044Z,10.87
2018-07-27T22:36:46.433Z,10.30
2018-07-27T22:39:14.736Z,9.93
2018-07-27T22:41:43.126Z,10.10
2018-07-27T22:44:11.467Z,10.50
2018-07-27T22:46:40.209Z,9.90
2018-07-27T22:49:08.605Z,9.87
2018-07-27T22:51:37.269Z,10.13
2018-07-27T22:54:05.711Z,9.60
2018-07-27T22:56:34.035Z,9.40
2018-07-27T22:59:02.358Z,9.00
2018-07-27T23:01:30.789Z,9.60
2018-07-27T23:03:59.172Z,9.13
2018-07-27T23:06:27.574Z,8.53
2018-07-27T23:08:55.909Z,9.50
2018-07-27T23:11:24.234Z,9.33
2018-07-27T23:13:52.609Z,7.53
2018-07-27T23:16:21.232Z,9.20
2018-07-27T23:18:49.568Z,9.60
2018-07-27T23:21:17.913Z,9.80
2018-07-27T23:23:46.280Z,9.87
2018-07-27T23:26:14.621Z,9.77
2018-07-27T23:28:42.941Z,10.00
2018-07-27T23:31:11.324Z,9.40
2018-07-27T23:33:39.685Z,10.10
2018-07-27T23:36:08.023Z,9.50
2018-07-27T23:38:36.400Z,10.10
2018-07-27T23:41:04.738Z,9.33
2018-07-27T23:43:33.073Z,9.70
2018-07-27T23:46:01.463Z,8.90
2018-07-27T23:48:29.794Z,9.90
2018-07-27T23:50:58.141Z,10.20
2018-07-27T23:53:26.439Z,9.73
2018-07-27T23:55:54.760Z,9.10
2018-07-27T23:58:23.106Z,10.33
